X  Sluiten METAR luchtvaart weer gegevens      EHKD De Kooy Airport
Temperatuur
46°F Temperatuur
39°F Dauwpunt
76% Vochtigheid



Wind
17 MPH
27 KM/U
8 M/S
15 KTS



340°
NNW
Huidig weer

Lichte Regen Lichte Regen
Luchtdruk 1012.87 (hPa) - 29.91 (inHg)
Zicht 6 (mijl) - 9.7 (km)
Vliegveld
Vliegveld code EHKD

Locatie : De Kooy Airport
Afstand: 34 (mi)

Metar:
EHKD 191903Z AUTO 34015G31KT 290V030 9999 -RA SCT018 BKN021 OVC027 08/04 Q1013 WHT

Tijd: 19-04-2024 21:03 CEST